sensor_id;sensor_type;location;lat;lon;timestamp;temperature;humidity
16879;DHT22;8556;52.218;9.884;2023-04-15T00:02:13;7.00;99.90
16879;DHT22;8556;52.218;9.884;2023-04-15T00:04:40;7.00;99.90
16879;DHT22;8556;52.218;9.884;2023-04-15T00:07:07;6.90;99.90
16879;DHT22;8556;52.218;9.884;2023-04-15T00:09:35;7.00;99.90
16879;DHT22;8556;52.218;9.884;2023-04-15T00:12:03;6.90;99.90
16879;DHT22;8556;52.218;9.884;2023-04-15T00:14:30;6.80;99.90
16879;DHT22;8556;52.218;9.884;2023-04-15T00:16:56;6.80;99.90
16879;DHT22;8556;52.218;9.884;2023-04-15T00:19:23;6.80;99.90
16879;DHT22;8556;52.218;9.884;2023-04-15T00:21:50;6.90;99.90
16879;DHT22;8556;52.218;9.884;2023-04-15T00:24:17;6.90;99.90
16879;DHT22;8556;52.218;9.884;2023-04-15T00:26:45;6.90;99.90
16879;DHT22;8556;52.218;9.884;2023-04-15T00:29:12;6.90;99.90
16879;DHT22;8556;52.218;9.884;2023-04-15T00:31:39;6.90;99.90
16879;DHT22;8556;52.218;9.884;2023-04-15T00:34:06;6.90;99.90
16879;DHT22;8556;52.218;9.884;2023-04-15T00:36:33;6.90;99.90
16879;DHT22;8556;52.218;9.884;2023-04-15T00:39:01;6.90;99.90
16879;DHT22;8556;52.218;9.884;2023-04-15T00:41:28;6.90;99.90
16879;DHT22;8556;52.218;9.884;2023-04-15T00:43:56;6.90;99.90
16879;DHT22;8556;52.218;9.884;2023-04-15T00:46:26;6.90;99.90
16879;DHT22;8556;52.218;9.884;2023-04-15T00:48:53;6.90;99.90
16879;DHT22;8556;52.218;9.884;2023-04-15T00:51:20;7.00;99.90
16879;DHT22;8556;52.218;9.884;2023-04-15T00:53:47;7.00;99.90
16879;DHT22;8556;52.218;9.884;2023-04-15T00:56:14;7.00;99.90
16879;DHT22;8556;52.218;9.884;2023-04-15T00:58:41;7.00;99.90
16879;DHT22;8556;52.218;9.884;2023-04-15T01:01:10;7.00;99.90
16879;DHT22;8556;52.218;9.884;2023-04-15T01:03:36;6.90;99.90
16879;DHT22;8556;52.218;9.884;2023-04-15T01:06:03;6.90;99.90
16879;DHT22;8556;52.218;9.884;2023-04-15T01:08:30;6.90;99.90
16879;DHT22;8556;52.218;9.884;2023-04-15T01:10:58;7.00;99.90
16879;DHT22;8556;52.218;9.884;2023-04-15T01:13:28;7.00;99.90
16879;DHT22;8556;52.218;9.884;2023-04-15T01:15:56;7.00;99.90
16879;DHT22;8556;52.218;9.884;2023-04-15T01:18:24;7.00;99.90
16879;DHT22;8556;52.218;9.884;2023-04-15T01:20:52;7.00;99.90
16879;DHT22;8556;52.218;9.884;2023-04-15T01:23:19;7.00;99.90
16879;DHT22;8556;52.218;9.884;2023-04-15T01:25:48;6.90;99.90
16879;DHT22;8556;52.218;9.884;2023-04-15T01:28:15;6.90;99.90
16879;DHT22;8556;52.218;9.884;2023-04-15T01:30:41;6.90;99.90
16879;DHT22;8556;52.218;9.884;2023-04-15T01:33:09;7.00;99.90
16879;DHT22;8556;52.218;9.884;2023-04-15T01:35:35;7.00;99.90
16879;DHT22;8556;52.218;9.884;2023-04-15T01:38:05;7.00;99.90
16879;DHT22;8556;52.218;9.884;2023-04-15T01:40:32;7.00;99.90
16879;DHT22;8556;52.218;9.884;2023-04-15T01:43:01;7.00;99.90
16879;DHT22;8556;52.218;9.884;2023-04-15T01:45:28;7.10;99.90
16879;DHT22;8556;52.218;9.884;2023-04-15T01:47:55;7.10;99.90
16879;DHT22;8556;52.218;9.884;2023-04-15T01:50:22;7.10;99.90
16879;DHT22;8556;52.218;9.884;2023-04-15T01:52:50;7.00;99.90
16879;DHT22;8556;52.218;9.884;2023-04-15T01:55:17;7.10;99.90
16879;DHT22;8556;52.218;9.884;2023-04-15T01:57:44;7.10;99.90
16879;DHT22;8556;52.218;9.884;2023-04-15T02:00:13;7.10;99.90
16879;DHT22;8556;52.218;9.884;2023-04-15T02:02:41;7.10;99.90
16879;DHT22;8556;52.218;9.884;2023-04-15T02:05:08;7.20;99.90
16879;DHT22;8556;52.218;9.884;2023-04-15T02:07:35;7.20;99.90
16879;DHT22;8556;52.218;9.884;2023-04-15T02:10:02;7.10;99.90
16879;DHT22;8556;52.218;9.884;2023-04-15T02:12:29;7.20;99.90
16879;DHT22;8556;52.218;9.884;2023-04-15T02:14:56;7.30;99.90
16879;DHT22;8556;52.218;9.884;2023-04-15T02:17:24;7.10;99.90
16879;DHT22;8556;52.218;9.884;2023-04-15T02:19:51;7.20;99.90
16879;DHT22;8556;52.218;9.884;2023-04-15T02:22:18;7.20;99.90
16879;DHT22;8556;52.218;9.884;2023-04-15T02:24:45;7.30;99.90
16879;DHT22;8556;52.218;9.884;2023-04-15T02:27:15;7.20;99.90
16879;DHT22;8556;52.218;9.884;2023-04-15T02:29:42;7.30;99.90
16879;DHT22;8556;52.218;9.884;2023-04-15T02:32:09;7.30;99.90
16879;DHT22;8556;52.218;9.884;2023-04-15T02:34:38;7.30;99.90
16879;DHT22;8556;52.218;9.884;2023-04-15T02:37:07;7.30;99.90
16879;DHT22;8556;52.218;9.884;2023-04-15T02:39:34;7.20;99.90
16879;DHT22;8556;52.218;9.884;2023-04-15T02:42:01;7.40;99.90
16879;DHT22;8556;52.218;9.884;2023-04-15T02:44:29;7.30;99.90
16879;DHT22;8556;52.218;9.884;2023-04-15T02:46:57;7.30;99.90
16879;DHT22;8556;52.218;9.884;2023-04-15T02:49:24;7.30;99.90
16879;DHT22;8556;52.218;9.884;2023-04-15T02:51:52;7.30;99.90
16879;DHT22;8556;52.218;9.884;2023-04-15T02:54:20;7.30;99.90
16879;DHT22;8556;52.218;9.884;2023-04-15T02:56:47;7.30;99.90
16879;DHT22;8556;52.218;9.884;2023-04-15T02:59:14;7.30;99.90
16879;DHT22;8556;52.218;9.884;2023-04-15T03:01:41;7.40;99.90
16879;DHT22;8556;52.218;9.884;2023-04-15T03:04:08;7.40;99.90
16879;DHT22;8556;52.218;9.884;2023-04-15T03:06:35;7.30;99.90
16879;DHT22;8556;52.218;9.884;2023-04-15T03:09:03;7.30;99.90
16879;DHT22;8556;52.218;9.884;2023-04-15T03:11:30;7.40;99.90
16879;DHT22;8556;52.218;9.884;2023-04-15T03:13:57;7.40;99.90
16879;DHT22;8556;52.218;9.884;2023-04-15T03:16:24;7.40;99.90
16879;DHT22;8556;52.218;9.884;2023-04-15T03:18:51;7.30;99.90
16879;DHT22;8556;52.218;9.884;2023-04-15T03:21:18;7.30;99.90
16879;DHT22;8556;52.218;9.884;2023-04-15T03:23:45;7.30;99.90
16879;DHT22;8556;52.218;9.884;2023-04-15T03:26:25;7.40;99.90
16879;DHT22;8556;52.218;9.884;2023-04-15T03:28:53;7.30;99.90
16879;DHT22;8556;52.218;9.884;2023-04-15T03:31:19;7.30;99.90
16879;DHT22;8556;52.218;9.884;2023-04-15T03:33:46;7.30;99.90
16879;DHT22;8556;52.218;9.884;2023-04-15T03:36:13;7.30;99.90
16879;DHT22;8556;52.218;9.884;2023-04-15T03:38:40;7.20;99.90
16879;DHT22;8556;52.218;9.884;2023-04-15T03:41:07;7.20;99.90
16879;DHT22;8556;52.218;9.884;2023-04-15T03:43:35;7.20;99.90
16879;DHT22;8556;52.218;9.884;2023-04-15T03:46:02;7.40;99.90
16879;DHT22;8556;52.218;9.884;2023-04-15T03:48:29;7.20;99.90
16879;DHT22;8556;52.218;9.884;2023-04-15T03:50:56;7.20;99.90
16879;DHT22;8556;52.218;9.884;2023-04-15T03:53:22;7.10;99.90
16879;DHT22;8556;52.218;9.884;2023-04-15T03:55:49;7.10;99.90
16879;DHT22;8556;52.218;9.884;2023-04-15T03:58:16;7.10;99.90
16879;DHT22;8556;52.218;9.884;2023-04-15T04:00:45;7.00;99.90
16879;DHT22;8556;52.218;9.884;2023-04-15T04:03:11;6.90;99.90
16879;DHT22;8556;52.218;9.884;2023-04-15T04:05:39;7.00;99.90
16879;DHT22;8556;52.218;9.884;2023-04-15T04:08:06;6.90;99.90
16879;DHT22;8556;52.218;9.884;2023-04-15T04:10:33;6.80;99.90
16879;DHT22;8556;52.218;9.884;2023-04-15T04:12:59;6.80;99.90
16879;DHT22;8556;52.218;9.884;2023-04-15T04:15:26;6.70;99.90
16879;DHT22;8556;52.218;9.884;2023-04-15T04:17:55;6.70;99.90
16879;DHT22;8556;52.218;9.884;2023-04-15T04:20:22;6.70;99.90
16879;DHT22;8556;52.218;9.884;2023-04-15T04:22:49;6.60;99.90
16879;DHT22;8556;52.218;9.884;2023-04-15T04:25:16;6.60;99.90
16879;DHT22;8556;52.218;9.884;2023-04-15T04:27:43;6.60;99.90
16879;DHT22;8556;52.218;9.884;2023-04-15T04:30:11;6.60;99.90
16879;DHT22;8556;52.218;9.884;2023-04-15T04:32:38;6.60;99.90
16879;DHT22;8556;52.218;9.884;2023-04-15T04:35:07;6.60;99.90
16879;DHT22;8556;52.218;9.884;2023-04-15T04:37:34;6.50;99.90
16879;DHT22;8556;52.218;9.884;2023-04-15T04:40:01;6.60;99.90
16879;DHT22;8556;52.218;9.884;2023-04-15T04:42:29;6.60;99.90
16879;DHT22;8556;52.218;9.884;2023-04-15T04:44:56;6.50;99.90
16879;DHT22;8556;52.218;9.884;2023-04-15T04:47:22;6.50;99.90
16879;DHT22;8556;52.218;9.884;2023-04-15T04:49:49;6.50;99.90
16879;DHT22;8556;52.218;9.884;2023-04-15T04:52:17;6.40;99.90
16879;DHT22;8556;52.218;9.884;2023-04-15T04:54:44;6.40;99.90
16879;DHT22;8556;52.218;9.884;2023-04-15T04:57:11;6.40;99.90
16879;DHT22;8556;52.218;9.884;2023-04-15T04:59:39;6.30;99.90
16879;DHT22;8556;52.218;9.884;2023-04-15T05:02:06;6.40;99.90
16879;DHT22;8556;52.218;9.884;2023-04-15T05:04:33;6.30;99.90
16879;DHT22;8556;52.218;9.884;2023-04-15T05:07:00;6.30;99.90
16879;DHT22;8556;52.218;9.884;2023-04-15T05:09:28;6.30;99.90
16879;DHT22;8556;52.218;9.884;2023-04-15T05:11:56;6.30;99.90
16879;DHT22;8556;52.218;9.884;2023-04-15T05:14:23;6.30;99.90
16879;DHT22;8556;52.218;9.884;2023-04-15T05:16:50;6.30;99.90
16879;DHT22;8556;52.218;9.884;2023-04-15T05:19:17;6.30;99.90
16879;DHT22;8556;52.218;9.884;2023-04-15T05:21:44;6.30;99.90
16879;DHT22;8556;52.218;9.884;2023-04-15T05:24:11;6.30;99.90
16879;DHT22;8556;52.218;9.884;2023-04-15T05:26:39;6.30;99.90
16879;DHT22;8556;52.218;9.884;2023-04-15T05:29:06;6.20;99.90
16879;DHT22;8556;52.218;9.884;2023-04-15T05:31:33;6.20;99.90
16879;DHT22;8556;52.218;9.884;2023-04-15T05:34:00;6.30;99.90
16879;DHT22;8556;52.218;9.884;2023-04-15T05:36:27;6.30;99.90
16879;DHT22;8556;52.218;9.884;2023-04-15T05:38:54;6.20;99.90
16879;DHT22;8556;52.218;9.884;2023-04-15T05:41:20;6.20;99.90
16879;DHT22;8556;52.218;9.884;2023-04-15T05:43:49;6.20;99.90
16879;DHT22;8556;52.218;9.884;2023-04-15T05:46:15;6.20;99.90
16879;DHT22;8556;52.218;9.884;2023-04-15T05:48:42;6.20;99.90
16879;DHT22;8556;52.218;9.884;2023-04-15T05:51:09;6.10;99.90
16879;DHT22;8556;52.218;9.884;2023-04-15T05:53:36;6.20;99.90
16879;DHT22;8556;52.218;9.884;2023-04-15T05:56:03;6.20;99.90
16879;DHT22;8556;52.218;9.884;2023-04-15T05:58:30;6.10;99.90
16879;DHT22;8556;52.218;9.884;2023-04-15T06:00:58;6.20;99.90
16879;DHT22;8556;52.218;9.884;2023-04-15T06:03:25;6.20;99.90
16879;DHT22;8556;52.218;9.884;2023-04-15T06:05:52;6.10;99.90
16879;DHT22;8556;52.218;9.884;2023-04-15T06:08:19;6.20;99.90
16879;DHT22;8556;52.218;9.884;2023-04-15T06:10:46;6.10;99.90
16879;DHT22;8556;52.218;9.884;2023-04-15T06:13:13;6.30;99.90
16879;DHT22;8556;52.218;9.884;2023-04-15T06:15:41;6.20;99.90
16879;DHT22;8556;52.218;9.884;2023-04-15T06:18:09;6.20;99.90
16879;DHT22;8556;52.218;9.884;2023-04-15T06:20:37;6.20;99.90
16879;DHT22;8556;52.218;9.884;2023-04-15T06:23:04;6.20;99.90
16879;DHT22;8556;52.218;9.884;2023-04-15T06:25:31;6.30;99.90
16879;DHT22;8556;52.218;9.884;2023-04-15T06:27:58;6.20;99.90
16879;DHT22;8556;52.218;9.884;2023-04-15T06:30:25;6.20;99.90
16879;DHT22;8556;52.218;9.884;2023-04-15T06:32:52;6.20;99.90
16879;DHT22;8556;52.218;9.884;2023-04-15T06:35:21;6.10;99.90
16879;DHT22;8556;52.218;9.884;2023-04-15T06:37:48;6.30;99.90
16879;DHT22;8556;52.218;9.884;2023-04-15T06:40:16;6.20;99.90
16879;DHT22;8556;52.218;9.884;2023-04-15T06:42:43;6.20;99.90
16879;DHT22;8556;52.218;9.884;2023-04-15T06:45:10;6.20;99.90
16879;DHT22;8556;52.218;9.884;2023-04-15T06:47:37;6.20;99.90
16879;DHT22;8556;52.218;9.884;2023-04-15T06:50:05;6.20;99.90
16879;DHT22;8556;52.218;9.884;2023-04-15T06:52:35;6.20;99.90
16879;DHT22;8556;52.218;9.884;2023-04-15T06:55:02;6.20;99.90
16879;DHT22;8556;52.218;9.884;2023-04-15T06:57:29;6.20;99.90
16879;DHT22;8556;52.218;9.884;2023-04-15T06:59:56;6.20;99.90
16879;DHT22;8556;52.218;9.884;2023-04-15T07:02:23;6.20;99.90
16879;DHT22;8556;52.218;9.884;2023-04-15T07:04:50;6.20;99.90
16879;DHT22;8556;52.218;9.884;2023-04-15T07:07:17;6.20;99.90
16879;DHT22;8556;52.218;9.884;2023-04-15T07:09:45;6.20;99.90
16879;DHT22;8556;52.218;9.884;2023-04-15T07:12:12;6.20;99.90
16879;DHT22;8556;52.218;9.884;2023-04-15T07:14:39;6.20;99.90
16879;DHT22;8556;52.218;9.884;2023-04-15T07:17:05;6.30;99.90
16879;DHT22;8556;52.218;9.884;2023-04-15T07:19:32;6.30;99.90
16879;DHT22;8556;52.218;9.884;2023-04-15T07:21:59;6.30;99.90
16879;DHT22;8556;52.218;9.884;2023-04-15T07:24:26;6.30;99.90
16879;DHT22;8556;52.218;9.884;2023-04-15T07:26:54;6.30;99.90
16879;DHT22;8556;52.218;9.884;2023-04-15T07:29:22;6.30;99.90
16879;DHT22;8556;52.218;9.884;2023-04-15T07:31:49;6.40;99.90
16879;DHT22;8556;52.218;9.884;2023-04-15T07:34:18;6.30;99.90
16879;DHT22;8556;52.218;9.884;2023-04-15T07:36:45;6.40;99.90
16879;DHT22;8556;52.218;9.884;2023-04-15T07:39:14;6.40;99.90
16879;DHT22;8556;52.218;9.884;2023-04-15T07:41:41;6.40;99.90
16879;DHT22;8556;52.218;9.884;2023-04-15T07:44:10;6.50;99.90
16879;DHT22;8556;52.218;9.884;2023-04-15T07:46:37;6.40;99.90
16879;DHT22;8556;52.218;9.884;2023-04-15T07:49:03;6.40;99.90
16879;DHT22;8556;52.218;9.884;2023-04-15T07:51:30;6.50;99.90
16879;DHT22;8556;52.218;9.884;2023-04-15T07:53:57;6.40;99.90
16879;DHT22;8556;52.218;9.884;2023-04-15T07:56:24;6.40;99.90
16879;DHT22;8556;52.218;9.884;2023-04-15T07:58:52;6.40;99.90
16879;DHT22;8556;52.218;9.884;2023-04-15T08:01:20;6.50;99.90
16879;DHT22;8556;52.218;9.884;2023-04-15T08:03:47;6.50;99.90
16879;DHT22;8556;52.218;9.884;2023-04-15T08:06:14;6.50;99.90
16879;DHT22;8556;52.218;9.884;2023-04-15T08:08:41;6.60;99.90
16879;DHT22;8556;52.218;9.884;2023-04-15T08:11:08;6.50;99.90
16879;DHT22;8556;52.218;9.884;2023-04-15T08:13:35;6.50;99.90
16879;DHT22;8556;52.218;9.884;2023-04-15T08:16:19;6.50;99.90
16879;DHT22;8556;52.218;9.884;2023-04-15T08:18:49;6.60;99.90
16879;DHT22;8556;52.218;9.884;2023-04-15T08:21:17;6.50;99.90
16879;DHT22;8556;52.218;9.884;2023-04-15T08:23:45;6.60;99.90
16879;DHT22;8556;52.218;9.884;2023-04-15T08:26:12;6.60;99.90
16879;DHT22;8556;52.218;9.884;2023-04-15T08:28:40;6.70;99.90
16879;DHT22;8556;52.218;9.884;2023-04-15T08:31:08;6.90;99.90
16879;DHT22;8556;52.218;9.884;2023-04-15T08:33:35;6.70;99.90
16879;DHT22;8556;52.218;9.884;2023-04-15T08:36:03;6.70;99.90
16879;DHT22;8556;52.218;9.884;2023-04-15T08:38:32;6.70;99.90
16879;DHT22;8556;52.218;9.884;2023-04-15T08:41:00;6.60;99.90
16879;DHT22;8556;52.218;9.884;2023-04-15T08:43:33;6.70;99.90
16879;DHT22;8556;52.218;9.884;2023-04-15T08:46:01;6.60;99.90
16879;DHT22;8556;52.218;9.884;2023-04-15T08:48:29;6.60;99.90
16879;DHT22;8556;52.218;9.884;2023-04-15T08:50:57;6.70;99.90
16879;DHT22;8556;52.218;9.884;2023-04-15T08:53:28;6.70;99.90
16879;DHT22;8556;52.218;9.884;2023-04-15T08:55:56;6.60;99.90
16879;DHT22;8556;52.218;9.884;2023-04-15T08:58:23;6.70;99.90
16879;DHT22;8556;52.218;9.884;2023-04-15T09:00:50;6.80;99.90
16879;DHT22;8556;52.218;9.884;2023-04-15T09:03:17;6.80;99.90
16879;DHT22;8556;52.218;9.884;2023-04-15T09:05:44;6.70;99.90
16879;DHT22;8556;52.218;9.884;2023-04-15T09:08:12;6.70;99.90
16879;DHT22;8556;52.218;9.884;2023-04-15T09:10:40;6.70;99.90
16879;DHT22;8556;52.218;9.884;2023-04-15T09:13:07;6.80;99.90
16879;DHT22;8556;52.218;9.884;2023-04-15T09:15:37;6.70;99.90
16879;DHT22;8556;52.218;9.884;2023-04-15T09:18:04;6.80;99.90
16879;DHT22;8556;52.218;9.884;2023-04-15T09:20:38;6.80;99.90
16879;DHT22;8556;52.218;9.884;2023-04-15T09:23:11;6.80;99.90
16879;DHT22;8556;52.218;9.884;2023-04-15T09:25:40;6.90;99.90
16879;DHT22;8556;52.218;9.884;2023-04-15T09:28:08;6.80;99.90
16879;DHT22;8556;52.218;9.884;2023-04-15T09:30:34;7.00;99.90
16879;DHT22;8556;52.218;9.884;2023-04-15T09:33:02;6.90;99.90
16879;DHT22;8556;52.218;9.884;2023-04-15T09:35:33;6.90;99.90
16879;DHT22;8556;52.218;9.884;2023-04-15T09:38:04;6.90;99.90
16879;DHT22;8556;52.218;9.884;2023-04-15T09:40:33;7.00;99.90
16879;DHT22;8556;52.218;9.884;2023-04-15T09:43:02;7.00;99.90
16879;DHT22;8556;52.218;9.884;2023-04-15T09:45:30;7.00;99.90
16879;DHT22;8556;52.218;9.884;2023-04-15T09:47:58;7.00;99.90
16879;DHT22;8556;52.218;9.884;2023-04-15T09:50:26;7.10;99.90
16879;DHT22;8556;52.218;9.884;2023-04-15T09:52:54;7.10;99.90
16879;DHT22;8556;52.218;9.884;2023-04-15T09:55:22;7.10;99.90
16879;DHT22;8556;52.218;9.884;2023-04-15T09:57:49;7.20;99.90
16879;DHT22;8556;52.218;9.884;2023-04-15T10:00:17;7.20;99.90
16879;DHT22;8556;52.218;9.884;2023-04-15T10:02:44;7.30;99.90
16879;DHT22;8556;52.218;9.884;2023-04-15T10:05:14;7.30;99.90
16879;DHT22;8556;52.218;9.884;2023-04-15T10:07:41;7.10;99.90
16879;DHT22;8556;52.218;9.884;2023-04-15T10:10:10;7.20;99.90
16879;DHT22;8556;52.218;9.884;2023-04-15T10:12:37;7.30;99.90
16879;DHT22;8556;52.218;9.884;2023-04-15T10:15:12;7.40;99.90
16879;DHT22;8556;52.218;9.884;2023-04-15T10:17:43;7.30;99.90
16879;DHT22;8556;52.218;9.884;2023-04-15T10:20:11;7.30;99.90
16879;DHT22;8556;52.218;9.884;2023-04-15T10:22:39;7.30;99.90
16879;DHT22;8556;52.218;9.884;2023-04-15T10:25:08;7.40;99.90
16879;DHT22;8556;52.218;9.884;2023-04-15T10:27:37;7.40;99.90
16879;DHT22;8556;52.218;9.884;2023-04-15T10:30:07;7.30;99.90
16879;DHT22;8556;52.218;9.884;2023-04-15T10:32:34;7.30;99.90
16879;DHT22;8556;52.218;9.884;2023-04-15T10:35:04;7.40;99.90
16879;DHT22;8556;52.218;9.884;2023-04-15T10:37:34;7.60;99.90
16879;DHT22;8556;52.218;9.884;2023-04-15T10:40:23;7.50;99.90
16879;DHT22;8556;52.218;9.884;2023-04-15T10:42:50;7.50;99.90
16879;DHT22;8556;52.218;9.884;2023-04-15T10:45:19;7.50;99.90
16879;DHT22;8556;52.218;9.884;2023-04-15T10:47:51;7.60;99.90
16879;DHT22;8556;52.218;9.884;2023-04-15T10:50:20;7.40;99.90
16879;DHT22;8556;52.218;9.884;2023-04-15T10:52:50;7.50;99.90
16879;DHT22;8556;52.218;9.884;2023-04-15T10:55:20;7.50;99.90
16879;DHT22;8556;52.218;9.884;2023-04-15T10:57:51;7.50;99.90
16879;DHT22;8556;52.218;9.884;2023-04-15T11:00:19;7.40;99.90
16879;DHT22;8556;52.218;9.884;2023-04-15T11:02:50;7.40;99.90
16879;DHT22;8556;52.218;9.884;2023-04-15T11:05:20;7.50;99.90
16879;DHT22;8556;52.218;9.884;2023-04-15T11:07:50;7.50;99.90
16879;DHT22;8556;52.218;9.884;2023-04-15T11:10:50;7.60;99.90
16879;DHT22;8556;52.218;9.884;2023-04-15T11:13:25;7.60;99.90
16879;DHT22;8556;52.218;9.884;2023-04-15T11:15:58;7.60;99.90
16879;DHT22;8556;52.218;9.884;2023-04-15T11:18:27;7.70;99.90
16879;DHT22;8556;52.218;9.884;2023-04-15T11:20:58;7.80;99.90
16879;DHT22;8556;52.218;9.884;2023-04-15T11:23:34;7.70;99.90
16879;DHT22;8556;52.218;9.884;2023-04-15T11:26:02;7.80;99.90
16879;DHT22;8556;52.218;9.884;2023-04-15T11:28:34;7.90;99.90
16879;DHT22;8556;52.218;9.884;2023-04-15T11:31:08;7.70;99.90
16879;DHT22;8556;52.218;9.884;2023-04-15T11:33:36;7.80;99.90
16879;DHT22;8556;52.218;9.884;2023-04-15T11:36:05;7.80;99.90
16879;DHT22;8556;52.218;9.884;2023-04-15T11:38:33;7.70;99.90
16879;DHT22;8556;52.218;9.884;2023-04-15T11:41:00;7.90;99.90
16879;DHT22;8556;52.218;9.884;2023-04-15T11:43:26;7.80;99.90
16879;DHT22;8556;52.218;9.884;2023-04-15T11:46:00;7.90;99.90
16879;DHT22;8556;52.218;9.884;2023-04-15T11:48:28;7.90;99.90
16879;DHT22;8556;52.218;9.884;2023-04-15T11:50:57;7.90;99.90
16879;DHT22;8556;52.218;9.884;2023-04-15T11:53:39;7.90;99.90
16879;DHT22;8556;52.218;9.884;2023-04-15T11:56:08;7.90;99.90
16879;DHT22;8556;52.218;9.884;2023-04-15T11:58:36;7.90;99.90
16879;DHT22;8556;52.218;9.884;2023-04-15T12:01:04;7.90;99.90
16879;DHT22;8556;52.218;9.884;2023-04-15T12:03:36;8.00;99.90
16879;DHT22;8556;52.218;9.884;2023-04-15T12:06:12;7.90;99.90
16879;DHT22;8556;52.218;9.884;2023-04-15T12:08:59;8.00;99.90
16879;DHT22;8556;52.218;9.884;2023-04-15T12:11:31;7.90;99.90
16879;DHT22;8556;52.218;9.884;2023-04-15T12:14:05;7.90;99.90
16879;DHT22;8556;52.218;9.884;2023-04-15T12:16:33;7.90;99.90
16879;DHT22;8556;52.218;9.884;2023-04-15T12:19:05;8.00;99.90
16879;DHT22;8556;52.218;9.884;2023-04-15T12:21:36;8.00;99.90
16879;DHT22;8556;52.218;9.884;2023-04-15T12:24:07;8.00;99.90
16879;DHT22;8556;52.218;9.884;2023-04-15T12:26:36;8.00;99.90
16879;DHT22;8556;52.218;9.884;2023-04-15T12:29:06;8.00;99.90
16879;DHT22;8556;52.218;9.884;2023-04-15T12:31:33;8.00;99.90
16879;DHT22;8556;52.218;9.884;2023-04-15T12:34:01;8.10;99.90
16879;DHT22;8556;52.218;9.884;2023-04-15T12:36:28;8.00;99.90
16879;DHT22;8556;52.218;9.884;2023-04-15T12:39:00;8.00;99.90
16879;DHT22;8556;52.218;9.884;2023-04-15T12:41:29;8.00;99.90
16879;DHT22;8556;52.218;9.884;2023-04-15T12:43:56;8.00;99.90
16879;DHT22;8556;52.218;9.884;2023-04-15T12:46:23;8.10;99.90
16879;DHT22;8556;52.218;9.884;2023-04-15T12:48:50;8.10;99.90
16879;DHT22;8556;52.218;9.884;2023-04-15T12:51:17;8.10;99.90
16879;DHT22;8556;52.218;9.884;2023-04-15T12:53:45;8.10;99.90
16879;DHT22;8556;52.218;9.884;2023-04-15T12:56:13;8.30;99.90
16879;DHT22;8556;52.218;9.884;2023-04-15T12:58:41;8.10;99.90
16879;DHT22;8556;52.218;9.884;2023-04-15T13:01:08;8.20;99.90
16879;DHT22;8556;52.218;9.884;2023-04-15T13:03:35;8.10;99.90
16879;DHT22;8556;52.218;9.884;2023-04-15T13:06:02;8.20;99.90
16879;DHT22;8556;52.218;9.884;2023-04-15T13:08:30;8.20;99.90
16879;DHT22;8556;52.218;9.884;2023-04-15T13:10:57;8.30;99.90
16879;DHT22;8556;52.218;9.884;2023-04-15T13:13:24;8.30;99.90
16879;DHT22;8556;52.218;9.884;2023-04-15T13:15:53;8.40;99.90
16879;DHT22;8556;52.218;9.884;2023-04-15T13:18:20;8.40;99.90
16879;DHT22;8556;52.218;9.884;2023-04-15T13:20:48;8.50;99.90
16879;DHT22;8556;52.218;9.884;2023-04-15T13:23:14;8.50;99.90
16879;DHT22;8556;52.218;9.884;2023-04-15T13:25:42;8.50;99.90
16879;DHT22;8556;52.218;9.884;2023-04-15T13:28:10;8.60;99.90
16879;DHT22;8556;52.218;9.884;2023-04-15T13:30:37;8.50;99.90
16879;DHT22;8556;52.218;9.884;2023-04-15T13:33:05;8.60;99.90
16879;DHT22;8556;52.218;9.884;2023-04-15T13:35:32;8.70;99.90
16879;DHT22;8556;52.218;9.884;2023-04-15T13:37:59;8.80;99.90
16879;DHT22;8556;52.218;9.884;2023-04-15T13:40:26;8.80;99.90
16879;DHT22;8556;52.218;9.884;2023-04-15T13:42:53;8.90;99.90
16879;DHT22;8556;52.218;9.884;2023-04-15T13:45:20;8.90;99.90
16879;DHT22;8556;52.218;9.884;2023-04-15T13:47:47;9.00;99.90
16879;DHT22;8556;52.218;9.884;2023-04-15T13:50:16;9.00;99.90
16879;DHT22;8556;52.218;9.884;2023-04-15T13:52:43;9.10;99.90
16879;DHT22;8556;52.218;9.884;2023-04-15T13:55:10;9.20;99.90
16879;DHT22;8556;52.218;9.884;2023-04-15T13:57:36;9.40;99.90
16879;DHT22;8556;52.218;9.884;2023-04-15T14:00:04;9.50;99.90
16879;DHT22;8556;52.218;9.884;2023-04-15T14:02:32;9.60;99.90
16879;DHT22;8556;52.218;9.884;2023-04-15T14:04:59;9.80;99.90
16879;DHT22;8556;52.218;9.884;2023-04-15T14:07:28;9.80;99.90
16879;DHT22;8556;52.218;9.884;2023-04-15T14:09:55;9.90;99.90
16879;DHT22;8556;52.218;9.884;2023-04-15T14:12:22;10.00;99.90
16879;DHT22;8556;52.218;9.884;2023-04-15T14:14:49;10.10;99.90
16879;DHT22;8556;52.218;9.884;2023-04-15T14:17:15;10.20;99.90
16879;DHT22;8556;52.218;9.884;2023-04-15T14:19:45;10.30;99.90
16879;DHT22;8556;52.218;9.884;2023-04-15T14:22:12;10.50;99.90
16879;DHT22;8556;52.218;9.884;2023-04-15T14:24:40;10.70;99.90
16879;DHT22;8556;52.218;9.884;2023-04-15T14:27:07;11.00;99.90
16879;DHT22;8556;52.218;9.884;2023-04-15T14:29:35;11.10;99.90
16879;DHT22;8556;52.218;9.884;2023-04-15T14:32:02;11.40;99.90
16879;DHT22;8556;52.218;9.884;2023-04-15T14:34:29;11.40;99.90
16879;DHT22;8556;52.218;9.884;2023-04-15T14:36:56;11.70;99.90
16879;DHT22;8556;52.218;9.884;2023-04-15T14:39:23;11.80;99.90
16879;DHT22;8556;52.218;9.884;2023-04-15T14:41:51;11.80;99.90
16879;DHT22;8556;52.218;9.884;2023-04-15T14:44:18;11.80;99.90
16879;DHT22;8556;52.218;9.884;2023-04-15T14:46:45;11.90;99.90
16879;DHT22;8556;52.218;9.884;2023-04-15T14:49:22;11.80;99.90
16879;DHT22;8556;52.218;9.884;2023-04-15T14:51:49;11.70;99.90
16879;DHT22;8556;52.218;9.884;2023-04-15T14:54:16;12.00;99.90
16879;DHT22;8556;52.218;9.884;2023-04-15T14:56:43;12.10;99.90
16879;DHT22;8556;52.218;9.884;2023-04-15T14:59:11;12.00;99.90
16879;DHT22;8556;52.218;9.884;2023-04-15T15:01:38;11.90;99.90
16879;DHT22;8556;52.218;9.884;2023-04-15T15:04:05;12.00;99.90
16879;DHT22;8556;52.218;9.884;2023-04-15T15:06:32;12.00;99.90
16879;DHT22;8556;52.218;9.884;2023-04-15T15:08:59;12.30;99.90
16879;DHT22;8556;52.218;9.884;2023-04-15T15:11:26;12.20;99.90
16879;DHT22;8556;52.218;9.884;2023-04-15T15:13:54;12.30;99.90
16879;DHT22;8556;52.218;9.884;2023-04-15T15:16:22;12.40;99.90
16879;DHT22;8556;52.218;9.884;2023-04-15T15:18:49;12.50;99.90
16879;DHT22;8556;52.218;9.884;2023-04-15T15:21:16;12.70;99.90
16879;DHT22;8556;52.218;9.884;2023-04-15T15:23:43;12.70;99.90
16879;DHT22;8556;52.218;9.884;2023-04-15T15:26:13;12.70;99.90
16879;DHT22;8556;52.218;9.884;2023-04-15T15:28:40;12.60;99.90
16879;DHT22;8556;52.218;9.884;2023-04-15T15:31:07;12.60;99.90
16879;DHT22;8556;52.218;9.884;2023-04-15T15:33:36;12.50;99.90
16879;DHT22;8556;52.218;9.884;2023-04-15T15:36:03;12.70;99.90
16879;DHT22;8556;52.218;9.884;2023-04-15T15:38:30;12.70;99.90
16879;DHT22;8556;52.218;9.884;2023-04-15T15:40:57;12.70;99.90
16879;DHT22;8556;52.218;9.884;2023-04-15T15:43:25;12.70;99.90
16879;DHT22;8556;52.218;9.884;2023-04-15T15:45:52;12.70;99.90
16879;DHT22;8556;52.218;9.884;2023-04-15T15:48:20;12.80;99.90
16879;DHT22;8556;52.218;9.884;2023-04-15T15:50:48;12.80;99.90
16879;DHT22;8556;52.218;9.884;2023-04-15T15:53:15;12.70;99.90
16879;DHT22;8556;52.218;9.884;2023-04-15T15:55:45;12.70;99.90
16879;DHT22;8556;52.218;9.884;2023-04-15T15:58:12;12.80;99.90
16879;DHT22;8556;52.218;9.884;2023-04-15T16:00:39;12.70;99.90
16879;DHT22;8556;52.218;9.884;2023-04-15T16:03:06;12.70;99.90
16879;DHT22;8556;52.218;9.884;2023-04-15T16:05:33;12.60;99.90